Time;durP1;ratioP1;P1;durP2;ratioP2;P2;SDS_P1;SDS_P2;PMS_P1;PMS_P2;Temp;Humidity;BMP_temperature;BMP_pressure;BME280_temperature;BME280_humidity;BME280_pressure;Samples;Min_cycle;Max_cycle;Signal;HPM_P1;HPM_P2
2023/01/14 00:01:45;;;;;;;23.27;3.65;;;;;;;;;;5094224;28;20036;-71
2023/01/14 00:04:11;;;;;;;15.98;3.78;;;;;;;;;;5093058;28;20129;-73
2023/01/14 00:06:37;;;;;;;20.77;4.30;;;;;;;;;;5093187;28;20047;-72
2023/01/14 00:09:05;;;;;;;21.80;3.20;;;;;;;;;;5111457;28;20040;-73
2023/01/14 00:11:46;;;;;;;19.17;3.03;;;;;;;;;;5113359;28;20044;-73
2023/01/14 00:14:14;;;;;;;20.25;3.00;;;;;;;;;;5111978;28;20130;-73
2023/01/14 00:16:40;;;;;;;18.25;4.03;;;;;;;;;;5113075;28;20048;-73
2023/01/14 00:19:06;;;;;;;17.08;3.30;;;;;;;;;;5111325;28;20043;-73
2023/01/14 00:21:32;;;;;;;19.27;3.63;;;;;;;;;;5116649;28;20039;-73
2023/01/14 00:23:58;;;;;;;21.00;3.40;;;;;;;;;;5109654;27;20032;-73
2023/01/14 00:26:25;;;;;;;14.55;2.53;;;;;;;;;;5124140;27;20386;-72
2023/01/14 00:28:52;;;;;;;21.17;3.30;;;;;;;;;;5104446;28;20147;-73
2023/01/14 00:31:22;;;;;;;23.13;3.13;;;;;;;;;;5089126;28;20444;-73
2023/01/14 00:33:48;;;;;;;19.05;3.10;;;;;;;;;;5092150;28;20087;-73
2023/01/14 00:36:15;;;;;;;18.15;2.80;;;;;;;;;;5093859;28;20121;-73
2023/01/14 00:38:42;;;;;;;18.48;3.33;;;;;;;;;;5098371;27;20052;-73
2023/01/14 00:41:08;;;;;;;14.85;2.78;;;;;;;;;;5097272;27;20040;-73
2023/01/14 00:43:38;;;;;;;18.27;3.00;;;;;;;;;;5098424;28;20496;-73
2023/01/14 00:46:05;;;;;;;16.85;2.53;;;;;;;;;;5103036;28;20039;-73
2023/01/14 00:48:32;;;;;;;20.83;3.10;;;;;;;;;;5109169;28;20520;-73
2023/01/14 00:50:58;;;;;;;15.60;2.92;;;;;;;;;;5115827;28;20042;-73
2023/01/14 00:53:24;;;;;;;17.08;2.97;;;;;;;;;;5136571;27;20043;-73
2023/01/14 00:55:50;;;;;;;21.27;3.85;;;;;;;;;;5137116;27;20074;-73
2023/01/14 00:58:16;;;;;;;22.05;3.08;;;;;;;;;;5115619;27;20070;-73
2023/01/14 01:00:44;;;;;;;20.98;2.70;;;;;;;;;;5113115;28;20169;-73
2023/01/14 01:03:10;;;;;;;17.88;2.92;;;;;;;;;;5096524;28;20413;-73
2023/01/14 01:05:36;;;;;;;17.40;2.70;;;;;;;;;;5115017;28;20048;-73
2023/01/14 01:08:10;;;;;;;22.02;3.25;;;;;;;;;;5098615;27;20099;-73
2023/01/14 01:10:36;;;;;;;18.25;3.15;;;;;;;;;;5105086;28;20075;-73
2023/01/14 01:13:05;;;;;;;16.92;2.85;;;;;;;;;;5115025;28;20039;-73
2023/01/14 01:15:33;;;;;;;21.83;3.10;;;;;;;;;;5078675;28;20052;-73
2023/01/14 01:17:59;;;;;;;17.13;2.45;;;;;;;;;;5108421;28;20047;-73
2023/01/14 01:20:25;;;;;;;21.88;2.88;;;;;;;;;;5114838;28;20482;-73
2023/01/14 01:22:51;;;;;;;18.55;2.75;;;;;;;;;;5116110;27;20047;-73
2023/01/14 01:25:17;;;;;;;21.25;3.60;;;;;;;;;;5115985;28;20113;-73
2023/01/14 01:27:43;;;;;;;22.38;3.08;;;;;;;;;;5112941;28;20089;-73
2023/01/14 01:30:10;;;;;;;21.42;3.35;;;;;;;;;;5116025;27;20047;-73
2023/01/14 01:32:36;;;;;;;20.48;2.95;;;;;;;;;;5112976;28;20047;-73
2023/01/14 01:35:02;;;;;;;24.60;3.17;;;;;;;;;;5115711;28;20055;-73
2023/01/14 01:37:28;;;;;;;19.08;2.80;;;;;;;;;;5115699;28;20046;-73
2023/01/14 01:39:54;;;;;;;16.60;2.50;;;;;;;;;;5114160;28;20073;-73
2023/01/14 01:42:22;;;;;;;21.40;3.17;;;;;;;;;;5110229;28;20051;-73
2023/01/14 01:44:49;;;;;;;18.55;3.15;;;;;;;;;;5111863;28;20093;-73
2023/01/14 01:47:16;;;;;;;18.70;3.10;;;;;;;;;;5097099;27;20048;-73
2023/01/14 01:49:42;;;;;;;16.70;3.88;;;;;;;;;;5093322;28;20059;-73
2023/01/14 01:52:15;;;;;;;16.50;3.70;;;;;;;;;;5092498;27;20044;-73
2023/01/14 01:54:43;;;;;;;18.67;3.13;;;;;;;;;;5097219;28;20044;-69
2023/01/14 01:57:11;;;;;;;17.55;2.80;;;;;;;;;;5097511;28;20047;-73
2023/01/14 01:59:39;;;;;;;21.40;3.10;;;;;;;;;;5099797;28;20040;-73
2023/01/14 02:02:06;;;;;;;19.67;2.88;;;;;;;;;;5099788;28;20434;-73
2023/01/14 02:04:32;;;;;;;20.17;3.42;;;;;;;;;;5096367;28;20138;-72
2023/01/14 02:06:58;;;;;;;20.20;3.45;;;;;;;;;;5096716;28;20047;-71
2023/01/14 02:09:24;;;;;;;17.77;3.20;;;;;;;;;;5100286;28;20072;-73
2023/01/14 02:12:17;;;;;;;16.17;2.65;;;;;;;;;;5103677;27;20043;-73
2023/01/14 02:14:52;;;;;;;16.42;3.10;;;;;;;;;;5113890;28;20048;-73
2023/01/14 02:17:27;;;;;;;19.92;3.00;;;;;;;;;;5113302;28;20036;-73
2023/01/14 02:20:03;;;;;;;17.17;3.38;;;;;;;;;;5114873;28;20047;-73
2023/01/14 02:22:36;;;;;;;23.85;3.90;;;;;;;;;;5104382;27;20059;-73
2023/01/14 02:25:20;;;;;;;23.33;3.55;;;;;;;;;;5100522;28;20040;-73
2023/01/14 02:27:58;;;;;;;20.48;3.53;;;;;;;;;;5112624;28;20054;-73
2023/01/14 02:30:46;;;;;;;22.27;3.35;;;;;;;;;;5114668;28;20429;-73
2023/01/14 02:33:18;;;;;;;23.05;3.15;;;;;;;;;;5113658;28;20044;-73
2023/01/14 02:35:48;;;;;;;24.02;3.13;;;;;;;;;;5111982;28;20043;-73
2023/01/14 02:38:32;;;;;;;17.83;3.20;;;;;;;;;;5111405;27;20048;-73
2023/01/14 02:44:23;;;;;;;22.83;3.45;;;;;;;;;;5051545;28;20048;-73
2023/01/14 02:46:49;;;;;;;;;;;;;;;;;;5052650;28;20392;-73
2023/01/14 02:49:20;;;;;;;20.83;3.15;;;;;;;;;;5070310;28;19974;-73
2023/01/14 02:51:47;;;;;;;21.17;3.20;;;;;;;;;;5074369;28;20109;-73
2023/01/14 02:54:16;;;;;;;25.48;3.45;;;;;;;;;;5080331;28;20036;-73
2023/01/14 02:56:43;;;;;;;23.83;2.95;;;;;;;;;;5068425;28;20045;-73
2023/01/14 02:59:11;;;;;;;24.15;3.58;;;;;;;;;;5069934;28;20106;-73
2023/01/14 03:01:56;;;;;;;20.08;3.33;;;;;;;;;;5066049;28;20411;-73
2023/01/14 03:04:31;;;;;;;21.52;3.50;;;;;;;;;;5069427;28;20056;-73
2023/01/14 03:07:02;;;;;;;22.35;3.33;;;;;;;;;;5071365;28;20075;-73
2023/01/14 03:09:28;;;;;;;16.75;2.90;;;;;;;;;;5071155;28;20732;-73
2023/01/14 03:12:00;;;;;;;20.73;3.08;;;;;;;;;;5070979;28;20056;-73
2023/01/14 03:14:30;;;;;;;25.90;3.53;;;;;;;;;;5070666;28;20041;-73
2023/01/14 03:16:59;;;;;;;21.65;2.97;;;;;;;;;;5061453;28;20049;-73
2023/01/14 03:19:29;;;;;;;19.02;3.22;;;;;;;;;;5098905;28;20105;-73
2023/01/14 03:21:57;;;;;;;20.13;3.00;;;;;;;;;;5093136;27;20048;-73
2023/01/14 03:24:23;;;;;;;19.65;3.00;;;;;;;;;;5096014;27;20032;-73
2023/01/14 03:26:50;;;;;;;21.33;3.05;;;;;;;;;;5096351;28;20176;-73
2023/01/14 03:29:19;;;;;;;21.88;3.42;;;;;;;;;;5093526;28;20043;-73
2023/01/14 03:31:50;;;;;;;20.52;2.97;;;;;;;;;;5108996;28;20455;-73
2023/01/14 03:34:21;;;;;;;15.77;2.97;;;;;;;;;;5113583;28;20086;-73
2023/01/14 03:36:49;;;;;;;16.55;3.13;;;;;;;;;;5113490;28;20421;-73
2023/01/14 03:39:17;;;;;;;22.80;3.17;;;;;;;;;;5113708;28;20077;-73
2023/01/14 03:44:44;;;;;;;25.55;4.03;;;;;;;;;;5113505;28;20073;-73
2023/01/14 03:47:10;;;;;;;19.50;2.83;;;;;;;;;;5103677;28;20055;-73
2023/01/14 03:49:36;;;;;;;21.20;3.25;;;;;;;;;;5094472;28;20061;-73
2023/01/14 03:52:02;;;;;;;21.65;2.97;;;;;;;;;;5111592;28;20486;-73
2023/01/14 03:54:31;;;;;;;18.92;2.88;;;;;;;;;;5112090;28;20044;-73
2023/01/14 03:57:01;;;;;;;19.02;3.03;;;;;;;;;;5113456;28;20047;-73
2023/01/14 03:59:40;;;;;;;23.35;3.47;;;;;;;;;;5110929;28;20051;-73
2023/01/14 04:02:07;;;;;;;21.40;2.95;;;;;;;;;;5111072;28;20043;-73
2023/01/14 04:04:34;;;;;;;17.63;3.42;;;;;;;;;;5112086;28;20052;-73
2023/01/14 04:07:00;;;;;;;18.35;2.72;;;;;;;;;;5111956;28;20061;-73
2023/01/14 04:09:26;;;;;;;22.05;3.78;;;;;;;;;;5113099;28;20083;-73
2023/01/14 04:11:52;;;;;;;16.60;2.80;;;;;;;;;;5114715;28;20039;-73
2023/01/14 04:17:03;;;;;;;20.85;3.13;;;;;;;;;;5099529;28;20043;-73
2023/01/14 04:19:29;;;;;;;22.13;3.17;;;;;;;;;;5117497;28;20047;-73
2023/01/14 04:21:55;;;;;;;19.95;3.30;;;;;;;;;;5115201;27;20090;-73
2023/01/14 04:24:21;;;;;;;27.55;3.20;;;;;;;;;;5114493;28;20474;-73
2023/01/14 04:26:47;;;;;;;17.88;2.85;;;;;;;;;;5115429;28;20069;-73
2023/01/14 04:29:14;;;;;;;21.77;3.05;;;;;;;;;;5112106;28;20043;-73
2023/01/14 04:31:40;;;;;;;20.90;3.17;;;;;;;;;;5117242;28;20036;-73
2023/01/14 04:34:06;;;;;;;17.10;3.00;;;;;;;;;;5117198;28;20049;-73
2023/01/14 04:36:32;;;;;;;14.63;2.88;;;;;;;;;;5117079;28;20123;-73
2023/01/14 04:38:58;;;;;;;21.75;3.17;;;;;;;;;;5096234;28;20122;-73
2023/01/14 04:44:08;;;;;;;17.92;3.33;;;;;;;;;;5115963;28;20047;-73
2023/01/14 04:46:34;;;;;;;14.88;2.75;;;;;;;;;;5116853;28;20059;-73
2023/01/14 04:49:01;;;;;;;17.80;3.15;;;;;;;;;;5115901;28;20088;-73
2023/01/14 04:51:27;;;;;;;18.80;3.35;;;;;;;;;;5116749;28;20047;-73
2023/01/14 04:53:54;;;;;;;22.48;3.85;;;;;;;;;;5112421;28;20495;-73
2023/01/14 04:56:20;;;;;;;22.40;4.07;;;;;;;;;;5114386;28;20090;-73
2023/01/14 04:58:47;;;;;;;24.95;4.05;;;;;;;;;;5108369;28;20397;-73
2023/01/14 05:01:13;;;;;;;23.85;3.90;;;;;;;;;;5115719;28;20066;-73
2023/01/14 05:03:39;;;;;;;24.85;4.22;;;;;;;;;;5116578;28;20409;-72
2023/01/14 05:06:06;;;;;;;25.58;3.75;;;;;;;;;;5117258;28;20051;-73
2023/01/14 05:08:32;;;;;;;25.50;4.18;;;;;;;;;;5115724;28;20040;-73
2023/01/14 05:10:58;;;;;;;17.08;3.42;;;;;;;;;;5117508;28;20047;-73
2023/01/14 05:13:24;;;;;;;16.52;3.72;;;;;;;;;;5099671;28;20055;-74
2023/01/14 05:15:50;;;;;;;23.75;3.80;;;;;;;;;;5109555;28;20040;-77
2023/01/14 05:18:17;;;;;;;22.83;3.35;;;;;;;;;;5116530;28;20036;-75
2023/01/14 05:20:43;;;;;;;20.23;3.50;;;;;;;;;;5115451;28;20051;-72
2023/01/14 05:23:14;;;;;;;28.70;3.90;;;;;;;;;;5115882;28;20482;-73
2023/01/14 05:25:40;;;;;;;26.33;3.70;;;;;;;;;;5117101;28;20050;-74
2023/01/14 05:28:07;;;;;;;28.63;4.13;;;;;;;;;;5117793;27;20274;-73
2023/01/14 05:30:33;;;;;;;25.42;4.03;;;;;;;;;;5096663;28;20515;-73
2023/01/14 05:32:59;;;;;;;19.38;4.13;;;;;;;;;;5109657;28;20044;-73
2023/01/14 05:35:26;;;;;;;20.90;3.33;;;;;;;;;;5115082;28;20078;-73
2023/01/14 05:37:52;;;;;;;23.08;3.75;;;;;;;;;;5114880;28;20039;-72
2023/01/14 05:40:18;;;;;;;24.65;4.07;;;;;;;;;;5114870;28;20431;-73
2023/01/14 05:45:38;;;;;;;24.85;4.50;;;;;;;;;;5122621;27;20043;-73
2023/01/14 05:48:08;;;;;;;26.60;4.72;;;;;;;;;;5094545;28;20066;-72
2023/01/14 05:50:34;;;;;;;26.95;4.45;;;;;;;;;;5112420;28;20127;-72
2023/01/14 05:53:01;;;;;;;33.20;4.95;;;;;;;;;;5115630;28;20092;-72
2023/01/14 05:55:27;;;;;;;23.58;4.82;;;;;;;;;;5115463;28;20050;-73
2023/01/14 05:57:53;;;;;;;23.75;5.00;;;;;;;;;;5114754;28;20126;-73
2023/01/14 06:08:35;;;;;;;30.25;5.00;;;;;;;;;;5100265;27;20135;-72
2023/01/14 06:11:01;;;;;;;30.08;5.57;;;;;;;;;;5094619;28;20051;-72
2023/01/14 06:13:27;;;;;;;32.10;5.30;;;;;;;;;;5093986;28;20512;-73
2023/01/14 06:15:55;;;;;;;31.98;5.57;;;;;;;;;;5094275;28;20066;-73
2023/01/14 06:18:22;;;;;;;32.85;5.97;;;;;;;;;;5110324;28;20044;-73
2023/01/14 06:20:49;;;;;;;29.38;5.47;;;;;;;;;;5094477;28;20040;-73
2023/01/14 06:23:15;;;;;;;35.63;6.32;;;;;;;;;;5111308;28;20047;-73
2023/01/14 06:25:45;;;;;;;31.67;5.55;;;;;;;;;;5114653;27;20047;-73
2023/01/14 06:28:11;;;;;;;36.40;6.38;;;;;;;;;;5112282;28;20115;-73
2023/01/14 06:30:37;;;;;;;34.35;5.93;;;;;;;;;;5127594;27;20539;-73
2023/01/14 06:33:03;;;;;;;38.85;6.47;;;;;;;;;;5116161;27;20105;-73
2023/01/14 06:35:29;;;;;;;26.55;5.60;;;;;;;;;;5096647;27;20075;-73
2023/01/14 06:37:55;;;;;;;36.85;5.75;;;;;;;;;;5107589;28;20059;-72
2023/01/14 06:40:21;;;;;;;41.30;6.22;;;;;;;;;;5114355;28;20040;-73
2023/01/14 06:42:47;;;;;;;31.80;5.85;;;;;;;;;;5112263;28;20042;-73
2023/01/14 06:45:13;;;;;;;35.55;5.82;;;;;;;;;;5114443;28;20558;-73
2023/01/14 06:47:39;;;;;;;35.80;6.00;;;;;;;;;;5114401;28;20511;-73
2023/01/14 06:50:06;;;;;;;30.23;5.60;;;;;;;;;;5114406;28;20051;-72
2023/01/14 06:52:32;;;;;;;27.27;5.10;;;;;;;;;;5114889;28;20114;-73
2023/01/14 06:54:58;;;;;;;35.13;6.47;;;;;;;;;;5099710;28;20055;-73
2023/01/14 06:57:25;;;;;;;24.80;5.18;;;;;;;;;;5101249;28;20057;-72
2023/01/14 06:59:51;;;;;;;37.85;6.13;;;;;;;;;;5115134;27;20040;-73
2023/01/14 07:02:17;;;;;;;29.38;5.03;;;;;;;;;;5134831;27;20404;-73
2023/01/14 07:04:44;;;;;;;35.17;5.57;;;;;;;;;;5129241;27;20402;-73
2023/01/14 07:07:10;;;;;;;29.73;5.38;;;;;;;;;;5133280;27;20046;-73
2023/01/14 07:09:36;;;;;;;34.90;5.82;;;;;;;;;;5134357;27;20050;-73
2023/01/14 07:12:02;;;;;;;34.47;5.82;;;;;;;;;;5113955;27;20051;-73
2023/01/14 07:14:28;;;;;;;36.00;6.03;;;;;;;;;;5113354;27;20101;-73
2023/01/14 07:16:55;;;;;;;33.90;5.53;;;;;;;;;;5104621;28;20433;-73
2023/01/14 07:19:21;;;;;;;45.40;6.22;;;;;;;;;;5109729;28;20044;-73
2023/01/14 07:21:47;;;;;;;33.88;5.72;;;;;;;;;;5112550;28;20077;-73
2023/01/14 07:24:13;;;;;;;37.08;6.32;;;;;;;;;;5113616;28;20405;-73
2023/01/14 07:26:39;;;;;;;36.50;5.78;;;;;;;;;;5113606;28;20511;-73
2023/01/14 07:29:05;;;;;;;39.17;6.00;;;;;;;;;;5111130;27;20399;-73
2023/01/14 07:31:31;;;;;;;33.47;4.82;;;;;;;;;;5113622;28;20040;-73
2023/01/14 07:33:57;;;;;;;30.35;5.45;;;;;;;;;;5112581;28;20043;-73
2023/01/14 07:36:23;;;;;;;38.60;6.05;;;;;;;;;;5119151;27;20055;-73
2023/01/14 07:38:49;;;;;;;44.17;5.68;;;;;;;;;;5121021;27;20054;-73
2023/01/14 07:41:18;;;;;;;33.25;6.00;;;;;;;;;;5112611;28;20047;-73
2023/01/14 07:43:44;;;;;;;30.40;5.80;;;;;;;;;;5111075;28;20051;-75
2023/01/14 07:46:10;;;;;;;37.03;6.10;;;;;;;;;;5111474;28;20598;-73
2023/01/14 07:48:36;;;;;;;35.45;6.22;;;;;;;;;;5110705;28;20556;-73
2023/01/14 07:51:03;;;;;;;38.22;6.22;;;;;;;;;;5105005;28;20047;-72
2023/01/14 07:53:29;;;;;;;29.77;5.47;;;;;;;;;;5099720;27;20568;-72
2023/01/14 07:55:55;;;;;;;33.63;5.90;;;;;;;;;;5106368;28;20039;-73
2023/01/14 07:58:23;;;;;;;32.08;5.45;;;;;;;;;;5104846;27;20445;-73
2023/01/14 08:00:49;;;;;;;37.50;6.28;;;;;;;;;;5102781;28;20043;-73
2023/01/14 08:03:15;;;;;;;24.50;5.20;;;;;;;;;;5106644;28;20059;-73
2023/01/14 08:05:41;;;;;;;35.92;5.90;;;;;;;;;;5108003;28;20048;-73
2023/01/14 08:08:07;;;;;;;31.00;5.15;;;;;;;;;;5112068;28;20182;-73
2023/01/14 08:10:33;;;;;;;30.98;5.40;;;;;;;;;;5111888;28;20044;-73
2023/01/14 08:12:59;;;;;;;32.92;5.72;;;;;;;;;;5121503;27;20043;-73
2023/01/14 08:15:25;;;;;;;36.72;5.53;;;;;;;;;;5123750;27;20050;-73
2023/01/14 08:17:51;;;;;;;28.48;5.10;;;;;;;;;;5097955;28;20035;-73
2023/01/14 08:20:22;;;;;;;36.63;5.25;;;;;;;;;;5100690;28;20044;-73
2023/01/14 08:22:48;;;;;;;31.58;5.72;;;;;;;;;;5098748;28;20052;-78
2023/01/14 08:25:14;;;;;;;28.63;5.05;;;;;;;;;;5101661;28;20481;-72
2023/01/14 08:27:40;;;;;;;31.80;4.70;;;;;;;;;;5109881;28;20047;-70
2023/01/14 08:30:07;;;;;;;34.38;5.40;;;;;;;;;;5108273;28;20044;-73
2023/01/14 08:32:33;;;;;;;31.85;4.60;;;;;;;;;;5104015;28;20040;-73
2023/01/14 08:34:59;;;;;;;30.27;4.88;;;;;;;;;;5101734;28;20447;-73
2023/01/14 08:37:25;;;;;;;33.97;6.20;;;;;;;;;;5096144;28;20048;-73
2023/01/14 08:39:51;;;;;;;32.30;6.00;;;;;;;;;;5105189;28;20044;-73
2023/01/14 08:42:17;;;;;;;28.55;5.20;;;;;;;;;;5103428;28;20109;-73
2023/01/14 08:44:43;;;;;;;27.35;4.53;;;;;;;;;;5108490;28;20524;-73
2023/01/14 08:47:09;;;;;;;30.20;5.40;;;;;;;;;;5109163;28;20571;-73
2023/01/14 08:49:35;;;;;;;34.72;6.18;;;;;;;;;;5109456;28;20257;-73
2023/01/14 08:52:01;;;;;;;21.70;4.50;;;;;;;;;;5111486;28;20064;-73
2023/01/14 08:54:28;;;;;;;29.23;5.65;;;;;;;;;;5113870;27;20441;-73
2023/01/14 08:56:55;;;;;;;27.58;4.50;;;;;;;;;;5104493;28;20063;-74
2023/01/14 08:59:21;;;;;;;33.47;11.48;;;;;;;;;;5100550;27;20423;-74
2023/01/14 09:01:47;;;;;;;31.05;7.60;;;;;;;;;;5104437;27;21618;-74
2023/01/14 09:04:13;;;;;;;26.90;5.15;;;;;;;;;;5110568;27;21248;-74
2023/01/14 09:17:40;;;;;;;28.15;4.18;;;;;;;;;;5103465;27;20127;-74
2023/01/14 09:20:09;;;;;;;27.02;5.07;;;;;;;;;;5102890;27;20496;-74
2023/01/14 09:22:36;;;;;;;26.02;5.05;;;;;;;;;;5109831;27;20039;-74
2023/01/14 09:25:02;;;;;;;25.75;4.32;;;;;;;;;;5102702;27;20086;-74
2023/01/14 09:27:29;;;;;;;27.70;4.78;;;;;;;;;;5113015;27;20039;-72
2023/01/14 09:29:55;;;;;;;30.60;4.20;;;;;;;;;;5111395;27;20154;-72
2023/01/14 09:32:21;;;;;;;31.58;4.43;;;;;;;;;;5112341;28;20047;-72
2023/01/14 09:34:49;;;;;;;24.38;4.57;;;;;;;;;;5107396;27;20168;-72
2023/01/14 09:37:20;;;;;;;24.80;4.40;;;;;;;;;;5098407;27;20036;-72
2023/01/14 09:39:47;;;;;;;27.83;4.87;;;;;;;;;;5110277;27;20079;-74
2023/01/14 09:42:15;;;;;;;28.17;4.20;;;;;;;;;;5113188;28;20297;-74
2023/01/14 09:44:42;;;;;;;33.35;3.67;;;;;;;;;;5099493;27;20052;-74
2023/01/14 09:47:10;;;;;;;27.65;4.38;;;;;;;;;;5107507;28;20042;-74
2023/01/14 09:49:36;;;;;;;22.92;4.07;;;;;;;;;;5111468;27;20043;-70
2023/01/14 09:52:03;;;;;;;27.13;4.03;;;;;;;;;;5097949;28;20036;-71
2023/01/14 09:54:34;;;;;;;26.25;4.15;;;;;;;;;;5096802;28;20511;-73
2023/01/14 09:57:07;;;;;;;19.90;3.88;;;;;;;;;;5102116;27;20069;-74
2023/01/14 09:59:33;;;;;;;26.98;4.18;;;;;;;;;;5110026;28;20111;-74
2023/01/14 10:02:05;;;;;;;25.88;3.42;;;;;;;;;;5111418;28;20119;-74
2023/01/14 10:04:49;;;;;;;20.48;3.75;;;;;;;;;;5109897;28;20056;-73
2023/01/14 10:07:17;;;;;;;17.60;3.67;;;;;;;;;;5094438;28;20040;-74
2023/01/14 10:09:46;;;;;;;20.67;3.80;;;;;;;;;;5105371;28;20397;-74
2023/01/14 10:12:16;;;;;;;18.13;3.78;;;;;;;;;;5105053;28;20059;-74
2023/01/14 10:15:12;;;;;;;23.25;3.85;;;;;;;;;;5102451;28;20371;-74
2023/01/14 10:17:40;;;;;;;21.70;4.53;;;;;;;;;;5093691;28;20048;-78
2023/01/14 10:20:11;;;;;;;24.98;4.90;;;;;;;;;;5088375;28;20040;-73
2023/01/14 10:22:39;;;;;;;21.27;4.68;;;;;;;;;;5081109;28;20298;-74
2023/01/14 10:25:16;;;;;;;27.48;6.28;;;;;;;;;;5082463;28;20044;-72
2023/01/14 10:27:43;;;;;;;18.48;5.32;;;;;;;;;;5085420;28;20494;-73
2023/01/14 10:30:33;;;;;;;18.42;5.38;;;;;;;;;;5089353;28;20048;-74
2023/01/14 10:32:59;;;;;;;24.75;5.70;;;;;;;;;;5052712;28;20063;-74
2023/01/14 10:35:36;;;;;;;25.33;5.90;;;;;;;;;;5074155;28;20048;-74
2023/01/14 10:38:02;;;;;;;20.88;5.68;;;;;;;;;;5090164;28;20043;-74
2023/01/14 10:40:29;;;;;;;15.20;5.35;;;;;;;;;;5090541;28;20048;-74
2023/01/14 10:42:56;;;;;;;14.68;5.10;;;;;;;;;;5090347;28;20422;-75
2023/01/14 10:45:22;;;;;;;18.38;4.90;;;;;;;;;;5089406;28;20410;-74
2023/01/14 10:47:49;;;;;;;15.23;4.43;;;;;;;;;;5089151;28;20110;-75
2023/01/14 10:50:18;;;;;;;19.13;5.05;;;;;;;;;;5089955;28;20043;-75
2023/01/14 10:52:44;;;;;;;16.38;5.15;;;;;;;;;;5091003;28;20423;-74
2023/01/14 10:55:16;;;;;;;16.40;5.00;;;;;;;;;;5107556;27;20051;-74
2023/01/14 10:57:56;;;;;;;14.00;4.90;;;;;;;;;;5108582;28;20129;-74
2023/01/14 11:00:42;;;;;;;13.68;4.75;;;;;;;;;;5099787;28;20048;-74
2023/01/14 11:03:09;;;;;;;16.80;4.88;;;;;;;;;;5101517;28;20047;-74
2023/01/14 11:05:37;;;;;;;15.02;4.72;;;;;;;;;;5113169;27;20077;-74
2023/01/14 11:08:26;;;;;;;14.23;4.15;;;;;;;;;;5107480;27;20044;-75
2023/01/14 11:10:53;;;;;;;14.32;4.10;;;;;;;;;;5089824;28;20060;-74
2023/01/14 11:13:31;;;;;;;10.60;3.70;;;;;;;;;;5092721;28;20060;-75
2023/01/14 11:15:57;;;;;;;11.50;3.60;;;;;;;;;;5101021;28;20048;-75
2023/01/14 11:18:25;;;;;;;10.48;3.80;;;;;;;;;;5105783;28;20046;-74
2023/01/14 11:21:00;;;;;;;13.20;3.60;;;;;;;;;;5112470;28;20052;-74
2023/01/14 11:23:28;;;;;;;10.73;3.45;;;;;;;;;;5112860;28;20541;-74
2023/01/14 11:25:54;;;;;;;11.38;3.53;;;;;;;;;;5115527;27;20075;-74
2023/01/14 11:28:21;;;;;;;13.00;3.80;;;;;;;;;;5118880;27;20040;-74
2023/01/14 11:30:49;;;;;;;12.27;3.25;;;;;;;;;;5112562;28;20078;-74
2023/01/14 11:33:23;;;;;;;10.95;3.22;;;;;;;;;;5113116;28;20043;-74
2023/01/14 11:35:51;;;;;;;12.90;2.67;;;;;;;;;;5111569;28;20373;-74
2023/01/14 11:38:21;;;;;;;8.38;2.45;;;;;;;;;;5112715;28;20402;-74
2023/01/14 11:43:51;;;;;;;8.95;2.60;;;;;;;;;;5112855;28;20047;-74
2023/01/14 11:46:17;;;;;;;18.02;9.55;;;;;;;;;;5109620;28;20080;-75
2023/01/14 11:48:44;;;;;;;9.55;3.15;;;;;;;;;;5111749;28;20409;-72
2023/01/14 11:51:20;;;;;;;9.95;3.53;;;;;;;;;;5111869;28;20048;-73
2023/01/14 11:53:47;;;;;;;11.75;3.03;;;;;;;;;;5112191;28;20039;-73
2023/01/14 11:56:18;;;;;;;11.95;2.90;;;;;;;;;;5113054;28;20055;-73
2023/01/14 11:58:44;;;;;;;7.63;3.10;;;;;;;;;;5112683;28;20118;-76
2023/01/14 12:01:26;;;;;;;8.98;2.83;;;;;;;;;;5111578;28;20035;-74
2023/01/14 12:03:55;;;;;;;9.77;2.97;;;;;;;;;;5109499;28;20094;-74
2023/01/14 12:06:24;;;;;;;10.02;2.95;;;;;;;;;;5107791;28;20051;-73
2023/01/14 12:08:53;;;;;;;10.30;3.42;;;;;;;;;;5111864;28;20043;-74
2023/01/14 12:11:42;;;;;;;10.65;3.70;;;;;;;;;;5086171;28;20044;-73
2023/01/14 12:17:03;;;;;;;8.73;2.80;;;;;;;;;;5112803;28;20052;-76
2023/01/14 12:19:30;;;;;;;12.45;2.83;;;;;;;;;;5110494;28;20040;-76
2023/01/14 12:22:03;;;;;;;10.30;3.13;;;;;;;;;;5112413;28;20054;-73
2023/01/14 12:24:38;;;;;;;8.80;2.63;;;;;;;;;;5110977;28;20059;-74
2023/01/14 12:27:05;;;;;;;13.63;3.42;;;;;;;;;;5102743;28;20044;-74
2023/01/14 12:29:41;;;;;;;10.40;2.83;;;;;;;;;;5104386;28;20048;-73
2023/01/14 12:32:09;;;;;;;11.00;2.95;;;;;;;;;;5092280;28;20448;-74
2023/01/14 12:34:41;;;;;;;9.80;2.90;;;;;;;;;;5113273;27;20043;-74
2023/01/14 12:37:07;;;;;;;;;;;;;;;;;;5112949;28;20089;-73
2023/01/14 12:47:55;;;;;;;9.75;2.72;;;;;;;;;;5112966;27;20043;-73
2023/01/14 12:50:22;;;;;;;6.43;2.50;;;;;;;;;;5099012;28;20101;-73
2023/01/14 12:52:51;;;;;;;8.73;2.30;;;;;;;;;;5111632;28;20494;-74
2023/01/14 12:55:30;;;;;;;7.60;2.10;;;;;;;;;;5109574;27;20495;-73
2023/01/14 12:57:57;;;;;;;10.48;2.60;;;;;;;;;;5099488;28;20043;-73
2023/01/14 13:00:28;;;;;;;6.75;2.13;;;;;;;;;;5114942;28;20122;-74
2023/01/14 13:02:55;;;;;;;4.53;1.75;;;;;;;;;;5100778;28;20109;-73
2023/01/14 13:05:29;;;;;;;4.95;1.80;;;;;;;;;;5106507;27;20055;-74
2023/01/14 13:07:57;;;;;;;7.75;2.03;;;;;;;;;;5104152;27;20481;-74
2023/01/14 13:10:45;;;;;;;6.18;2.05;;;;;;;;;;5113976;28;20035;-74
2023/01/14 13:13:20;;;;;;;5.57;1.60;;;;;;;;;;5109874;28;20043;-74
2023/01/14 13:15:46;;;;;;;7.22;1.70;;;;;;;;;;5098507;28;20563;-74
2023/01/14 13:18:30;;;;;;;4.97;1.75;;;;;;;;;;5113798;28;20047;-74
2023/01/14 13:20:57;;;;;;;6.03;2.00;;;;;;;;;;5115636;27;20508;-74
2023/01/14 13:23:38;;;;;;;6.63;1.77;;;;;;;;;;5114128;27;20043;-74
2023/01/14 13:26:18;;;;;;;4.60;1.80;;;;;;;;;;5115243;28;20512;-74
2023/01/14 13:29:03;;;;;;;5.78;1.95;;;;;;;;;;5113959;28;20097;-74
2023/01/14 13:31:34;;;;;;;4.50;1.65;;;;;;;;;;5115379;28;20039;-74
2023/01/14 13:34:20;;;;;;;5.13;1.60;;;;;;;;;;5113829;28;20054;-74
2023/01/14 13:36:46;;;;;;;6.65;1.95;;;;;;;;;;5115049;28;20134;-74
2023/01/14 13:39:18;;;;;;;5.53;1.55;;;;;;;;;;5113877;28;20066;-74
2023/01/14 13:41:46;;;;;;;4.80;1.13;;;;;;;;;;5113638;28;20047;-74
2023/01/14 13:44:33;;;;;;;4.15;1.30;;;;;;;;;;5113074;28;20416;-74
2023/01/14 13:47:04;;;;;;;3.67;1.17;;;;;;;;;;5119062;27;20057;-74
2023/01/14 13:49:40;;;;;;;3.67;0.95;;;;;;;;;;5135296;27;20055;-74
2023/01/14 13:52:13;;;;;;;4.78;0.98;;;;;;;;;;5113776;27;20440;-74
2023/01/14 13:54:39;;;;;;;6.18;1.23;;;;;;;;;;5129332;27;20054;-74
2023/01/14 13:57:24;;;;;;;3.85;1.10;;;;;;;;;;5120875;27;20036;-73
2023/01/14 13:59:53;;;;;;;6.50;1.10;;;;;;;;;;5112120;28;20122;-73
2023/01/14 14:02:41;;;;;;;3.65;1.00;;;;;;;;;;5109675;28;20474;-73
2023/01/14 14:05:33;;;;;;;5.07;1.30;;;;;;;;;;5107833;28;20052;-73
2023/01/14 14:08:05;;;;;;;3.97;0.88;;;;;;;;;;5109789;28;20059;-74
2023/01/14 14:10:31;;;;;;;6.50;1.48;;;;;;;;;;5114554;28;20048;-74
2023/01/14 14:15:49;;;;;;;2.35;1.00;;;;;;;;;;5113383;28;20051;-73
2023/01/14 14:18:25;;;;;;;3.85;1.00;;;;;;;;;;5114240;28;20046;-73
2023/01/14 14:20:52;;;;;;;5.40;1.15;;;;;;;;;;5113203;28;20039;-73
2023/01/14 14:23:26;;;;;;;3.13;0.93;;;;;;;;;;5111873;28;20525;-74
2023/01/14 14:25:53;;;;;;;5.38;0.95;;;;;;;;;;5114107;28;20043;-73
2023/01/14 14:28:21;;;;;;;2.88;0.90;;;;;;;;;;5094340;28;20048;-73
2023/01/14 14:30:59;;;;;;;3.47;0.82;;;;;;;;;;5111075;28;20039;-73
2023/01/14 14:33:29;;;;;;;3.20;0.88;;;;;;;;;;5112519;28;20122;-74
2023/01/14 14:35:55;;;;;;;3.90;0.95;;;;;;;;;;5110098;27;20055;-74
2023/01/14 14:38:22;;;;;;;2.72;0.90;;;;;;;;;;5099711;28;20513;-73
2023/01/14 14:40:48;;;;;;;3.50;0.90;;;;;;;;;;5093430;28;20044;-73
2023/01/14 14:43:23;;;;;;;2.88;0.85;;;;;;;;;;5105632;28;20402;-73
2023/01/14 14:46:05;;;;;;;3.40;0.98;;;;;;;;;;5107735;28;20043;-73
2023/01/14 14:48:33;;;;;;;2.50;0.80;;;;;;;;;;5112317;28;20043;-73
2023/01/14 14:50:59;;;;;;;2.33;0.80;;;;;;;;;;5081122;28;20036;-73
2023/01/14 14:53:26;;;;;;;2.65;1.00;;;;;;;;;;5107657;28;20055;-72
2023/01/14 14:55:52;;;;;;;2.78;0.88;;;;;;;;;;5106674;27;20079;-74
2023/01/14 14:58:20;;;;;;;1.50;0.70;;;;;;;;;;5106105;28;20044;-73
2023/01/14 15:00:51;;;;;;;2.20;0.80;;;;;;;;;;5104671;28;20162;-73
2023/01/14 15:03:17;;;;;;;;;;;;;;;;;;5098805;28;20121;-73
2023/01/14 15:05:43;;;;;;;11.05;5.20;;;;;;;;;;5106010;28;19982;-73
2023/01/14 15:08:11;;;;;;;12.05;5.20;;;;;;;;;;5108978;28;20043;-73
2023/01/14 15:10:38;;;;;;;5.03;2.40;;;;;;;;;;5105334;27;20118;-73
2023/01/14 15:13:04;;;;;;;3.25;1.33;;;;;;;;;;5105614;28;20139;-73
2023/01/14 15:15:32;;;;;;;2.30;1.00;;;;;;;;;;5100020;28;20051;-73
2023/01/14 15:18:18;;;;;;;1.90;0.93;;;;;;;;;;5105689;28;20043;-73
2023/01/14 15:20:45;;;;;;;2.55;1.00;;;;;;;;;;5101175;27;20043;-73
2023/01/14 15:23:14;;;;;;;1.40;0.80;;;;;;;;;;5096896;28;20410;-73
2023/01/14 15:25:40;;;;;;;3.63;1.10;;;;;;;;;;5103192;28;20044;-73
2023/01/14 15:28:06;;;;;;;2.63;1.10;;;;;;;;;;5104642;28;20047;-74
2023/01/14 15:30:32;;;;;;;2.50;1.00;;;;;;;;;;5109855;28;20044;-73
2023/01/14 15:32:58;;;;;;;2.35;1.00;;;;;;;;;;5111062;28;20118;-73
2023/01/14 15:35:24;;;;;;;1.98;0.90;;;;;;;;;;5112970;28;20050;-73